createdAt,value
2022-12-17T00:02:44.622Z,75.93
2022-12-17T00:05:34.618Z,68.50
2022-12-17T00:08:20.554Z,73.70
2022-12-17T00:11:16.991Z,74.75
2022-12-17T00:14:03.203Z,71.90
2022-12-17T00:16:48.918Z,75.03
2022-12-17T00:19:34.797Z,60.75
2022-12-17T00:22:20.610Z,72.85
2022-12-17T00:25:06.277Z,59.75
2022-12-17T00:27:52.118Z,80.55
2022-12-17T00:30:38.456Z,65.68
2022-12-17T00:33:24.593Z,67.32
2022-12-17T00:36:12.265Z,62.80
2022-12-17T00:38:58.500Z,69.68
2022-12-17T00:41:44.786Z,71.80
2022-12-17T00:44:30.596Z,65.05
2022-12-17T00:47:16.398Z,62.08
2022-12-17T00:50:02.329Z,65.90
2022-12-17T00:52:48.301Z,61.63
2022-12-17T00:55:34.318Z,65.38
2022-12-17T00:58:20.436Z,64.18
2022-12-17T01:01:06.301Z,71.93
2022-12-17T01:03:52.054Z,64.60
2022-12-17T01:06:51.996Z,63.58
2022-12-17T01:12:25.087Z,64.65
2022-12-17T01:15:10.972Z,67.38
2022-12-17T01:17:56.771Z,61.97
2022-12-17T01:20:42.648Z,63.08
2022-12-17T01:23:28.407Z,69.07
2022-12-17T01:26:15.967Z,68.00
2022-12-17T01:29:02.217Z,67.78
2022-12-17T01:31:48.210Z,68.13
2022-12-17T01:34:34.258Z,63.03
2022-12-17T01:37:20.151Z,62.28
2022-12-17T01:40:05.899Z,69.35
2022-12-17T01:43:04.920Z,65.97
2022-12-17T01:46:00.395Z,64.93
2022-12-17T01:48:56.763Z,61.50
2022-12-17T01:51:44.795Z,61.55
2022-12-17T01:54:32.371Z,61.22
2022-12-17T01:57:20.533Z,61.45
2022-12-17T02:00:25.548Z,55.08
2022-12-17T02:03:11.541Z,67.70
2022-12-17T02:06:09.864Z,73.72
2022-12-17T02:09:03.178Z,65.88
2022-12-17T02:12:07.790Z,65.68
2022-12-17T02:15:07.525Z,60.50
2022-12-17T02:18:00.686Z,52.50
2022-12-17T02:20:52.667Z,49.60
2022-12-17T02:24:04.278Z,41.75
2022-12-17T02:27:03.915Z,45.50
2022-12-17T02:29:58.255Z,52.15
2022-12-17T02:32:45.499Z,59.33
2022-12-17T02:35:42.592Z,53.65
2022-12-17T02:38:46.817Z,51.92
2022-12-17T02:41:53.544Z,50.85
2022-12-17T02:44:40.674Z,45.15
2022-12-17T02:47:41.735Z,51.15
2022-12-17T02:50:28.680Z,47.60
2022-12-17T02:53:16.994Z,46.30
2022-12-17T02:56:02.948Z,48.15
2022-12-17T02:58:48.798Z,50.33
2022-12-17T03:01:34.928Z,43.90
2022-12-17T03:04:21.049Z,49.42
2022-12-17T03:07:06.935Z,48.95
2022-12-17T03:09:52.848Z,48.95
2022-12-17T03:12:38.660Z,44.88
2022-12-17T03:15:24.743Z,44.55
2022-12-17T03:18:10.467Z,42.67
2022-12-17T03:20:56.199Z,49.28
2022-12-17T03:23:42.015Z,41.45
2022-12-17T03:26:28.072Z,45.75
2022-12-17T03:29:13.750Z,44.88
2022-12-17T03:31:59.518Z,56.17
2022-12-17T03:34:45.437Z,51.10
2022-12-17T03:37:31.428Z,54.22
2022-12-17T03:40:17.215Z,47.67
2022-12-17T03:43:03.068Z,48.70
2022-12-17T03:45:48.891Z,52.47
2022-12-17T03:48:34.794Z,44.58
2022-12-17T03:51:21.047Z,46.15
2022-12-17T03:54:07.015Z,43.35
2022-12-17T03:56:52.983Z,36.85
2022-12-17T03:59:38.891Z,37.90
2022-12-17T04:02:25.307Z,36.55
2022-12-17T04:05:16.562Z,37.17
2022-12-17T04:08:05.969Z,37.22
2022-12-17T04:10:51.642Z,33.05
2022-12-17T04:13:40.678Z,40.95
2022-12-17T04:16:27.623Z,33.35
2022-12-17T04:19:13.429Z,37.00
2022-12-17T04:21:59.756Z,37.63
2022-12-17T04:24:45.582Z,32.80
2022-12-17T04:27:31.548Z,36.50
2022-12-17T04:30:17.420Z,43.67
2022-12-17T04:33:03.114Z,29.20
2022-12-17T04:35:48.867Z,31.35
2022-12-17T04:38:34.781Z,37.20
2022-12-17T04:41:20.681Z,32.08
2022-12-17T04:44:06.656Z,29.08
2022-12-17T04:46:52.307Z,32.08
2022-12-17T04:49:38.072Z,32.33
2022-12-17T04:52:23.963Z,25.58
2022-12-17T04:55:09.661Z,34.00
2022-12-17T04:57:55.376Z,32.22
2022-12-17T05:00:41.090Z,35.42
2022-12-17T05:03:33.190Z,39.03
2022-12-17T05:06:19.610Z,44.28
2022-12-17T05:09:05.444Z,42.85
2022-12-17T05:11:51.263Z,40.90
2022-12-17T05:14:37.552Z,43.90
2022-12-17T05:17:23.555Z,44.03
2022-12-17T05:20:09.401Z,51.13
2022-12-17T05:22:55.319Z,49.55
2022-12-17T05:25:41.072Z,50.08
2022-12-17T05:28:27.017Z,57.60
2022-12-17T05:31:14.498Z,59.58
2022-12-17T05:34:00.377Z,61.00
2022-12-17T05:36:46.674Z,62.70
2022-12-17T05:39:32.714Z,74.43
2022-12-17T05:42:18.473Z,65.30
2022-12-17T05:45:04.562Z,66.40
2022-12-17T05:47:50.482Z,70.30
2022-12-17T05:50:36.365Z,76.57
2022-12-17T05:53:25.279Z,68.50
2022-12-17T05:56:11.817Z,72.18
2022-12-17T05:58:58.190Z,66.90
2022-12-17T06:01:44.078Z,64.80
2022-12-17T06:04:30.251Z,62.80
2022-12-17T06:07:16.058Z,62.13
2022-12-17T06:10:01.905Z,52.97
2022-12-17T06:12:47.888Z,60.10
2022-12-17T06:15:33.977Z,61.83
2022-12-17T06:18:19.807Z,60.05
2022-12-17T06:21:07.122Z,57.42
2022-12-17T06:23:52.928Z,58.05
2022-12-17T06:26:38.955Z,59.53
2022-12-17T06:29:24.688Z,57.78
2022-12-17T06:32:10.602Z,53.05
2022-12-17T06:34:58.212Z,51.85
2022-12-17T06:37:44.196Z,49.35
2022-12-17T06:40:30.275Z,53.45
2022-12-17T06:43:16.373Z,43.20
2022-12-17T06:46:02.224Z,51.55
2022-12-17T06:48:48.118Z,47.50
2022-12-17T06:51:33.890Z,43.55
2022-12-17T06:54:19.698Z,44.33
2022-12-17T06:57:05.653Z,32.42
2022-12-17T06:59:51.468Z,41.10
2022-12-17T07:02:37.170Z,31.92
2022-12-17T07:05:23.556Z,24.70
2022-12-17T07:08:19.154Z,21.63
2022-12-17T07:11:04.965Z,16.45
2022-12-17T07:13:50.909Z,11.05
2022-12-17T07:16:36.870Z,9.30
2022-12-17T07:19:27.238Z,10.15
2022-12-17T07:22:14.295Z,10.63
2022-12-17T07:25:00.697Z,13.40
2022-12-17T07:27:46.370Z,13.20
2022-12-17T07:30:32.366Z,8.18
2022-12-17T07:33:24.435Z,11.57
2022-12-17T07:36:14.286Z,12.20
2022-12-17T07:39:00.081Z,11.50
2022-12-17T07:41:46.452Z,13.52
2022-12-17T07:44:32.227Z,7.40
2022-12-17T07:47:17.966Z,8.30
2022-12-17T07:50:03.995Z,11.57
2022-12-17T07:52:49.980Z,4.53
2022-12-17T07:55:35.821Z,8.50
2022-12-17T07:58:24.578Z,9.82
2022-12-17T08:01:10.476Z,8.82
2022-12-17T08:03:56.320Z,6.43
2022-12-17T08:06:42.187Z,6.93
2022-12-17T08:09:27.960Z,6.28
2022-12-17T08:12:13.693Z,67.00
2022-12-17T08:14:59.401Z,6.63
2022-12-17T08:17:45.268Z,6.97
2022-12-17T08:20:31.387Z,7.88
2022-12-17T08:23:40.613Z,10.10
2022-12-17T08:26:26.741Z,9.20
2022-12-17T08:29:12.887Z,10.02
2022-12-17T08:31:58.724Z,6.68
2022-12-17T08:34:44.439Z,8.52
2022-12-17T08:37:30.290Z,8.27
2022-12-17T08:40:16.169Z,5.57
2022-12-17T08:43:01.812Z,6.78
2022-12-17T08:45:47.870Z,11.32
2022-12-17T08:48:33.650Z,6.20
2022-12-17T08:51:19.506Z,6.13
2022-12-17T08:54:05.524Z,7.55
2022-12-17T08:56:51.272Z,16.98
2022-12-17T08:59:38.122Z,6.47
2022-12-17T09:02:24.469Z,5.68
2022-12-17T09:05:10.529Z,8.68
2022-12-17T09:07:56.723Z,14.15
2022-12-17T09:10:42.570Z,9.05
2022-12-17T09:13:28.469Z,30.50
2022-12-17T09:16:14.950Z,16.00
2022-12-17T09:19:01.362Z,12.38
2022-12-17T09:21:48.716Z,7.95
2022-12-17T09:24:35.186Z,11.98
2022-12-17T09:27:21.012Z,8.55
2022-12-17T09:30:06.844Z,8.13
2022-12-17T09:32:52.595Z,10.35
2022-12-17T09:35:38.486Z,9.15
2022-12-17T09:38:24.404Z,8.57
2022-12-17T09:41:10.951Z,10.93
2022-12-17T09:44:18.081Z,14.55
2022-12-17T09:47:08.928Z,13.90
2022-12-17T09:49:56.309Z,13.10
2022-12-17T09:52:47.184Z,10.48
2022-12-17T09:56:00.765Z,12.45
2022-12-17T09:58:48.449Z,12.98
2022-12-17T10:01:46.856Z,18.85
2022-12-17T10:05:01.286Z,12.88
2022-12-17T10:07:54.961Z,10.20
2022-12-17T10:10:50.913Z,10.82
2022-12-17T10:13:40.637Z,19.23
2022-12-17T10:16:57.823Z,14.82
2022-12-17T10:20:00.030Z,14.38
2022-12-17T10:22:45.892Z,7.85
2022-12-17T10:25:36.207Z,10.77
2022-12-17T10:28:33.443Z,9.13
2022-12-17T10:31:20.325Z,12.50
2022-12-17T10:34:06.322Z,12.30
2022-12-17T10:36:52.641Z,6.82
2022-12-17T10:39:43.212Z,11.35
2022-12-17T10:42:59.466Z,12.63
2022-12-17T10:45:54.518Z,11.93
2022-12-17T10:48:49.832Z,11.23
2022-12-17T10:51:53.122Z,13.40
2022-12-17T10:54:48.687Z,14.35
2022-12-17T10:57:52.187Z,12.10
2022-12-17T11:00:50.034Z,17.45
2022-12-17T11:04:07.770Z,11.77
2022-12-17T11:07:01.631Z,17.50
2022-12-17T11:10:12.204Z,9.98
2022-12-17T11:13:14.624Z,16.93
2022-12-17T11:16:19.785Z,13.63
2022-12-17T11:19:15.935Z,10.27
2022-12-17T11:22:07.204Z,12.23
2022-12-17T11:25:02.256Z,11.82
2022-12-17T11:27:54.966Z,13.23
2022-12-17T11:30:55.021Z,11.63
2022-12-17T11:33:49.159Z,12.70
2022-12-17T11:36:47.130Z,7.80
2022-12-17T11:39:48.494Z,12.25
2022-12-17T11:45:55.612Z,10.90
2022-12-17T11:48:50.042Z,8.30
2022-12-17T11:51:43.619Z,9.65
2022-12-17T11:54:40.668Z,7.50
2022-12-17T11:57:39.594Z,8.38
2022-12-17T12:00:32.122Z,9.80
2022-12-17T12:03:50.587Z,8.73
2022-12-17T12:07:09.749Z,8.52
2022-12-17T12:10:11.513Z,9.35
2022-12-17T12:13:14.170Z,9.98
2022-12-17T12:16:03.199Z,11.43
2022-12-17T12:19:07.017Z,6.18
2022-12-17T12:22:28.886Z,11.25
2022-12-17T12:25:39.267Z,10.77
2022-12-17T12:29:00.731Z,8.60
2022-12-17T12:31:58.564Z,13.05
2022-12-17T12:34:49.933Z,10.45
2022-12-17T12:37:37.729Z,12.30
2022-12-17T12:40:46.427Z,10.52
2022-12-17T12:43:47.068Z,6.07
2022-12-17T12:47:02.453Z,9.57
2022-12-17T12:49:56.889Z,10.93
2022-12-17T12:52:46.110Z,9.95
2022-12-17T12:55:32.584Z,13.27
2022-12-17T12:58:21.385Z,13.38
2022-12-17T13:01:07.377Z,12.20
2022-12-17T13:04:02.380Z,11.20
2022-12-17T13:06:51.348Z,17.73
2022-12-17T13:09:23.170Z,15.68
2022-12-17T13:12:02.450Z,20.92
2022-12-17T13:14:36.795Z,26.40
2022-12-17T13:17:18.778Z,20.27
2022-12-17T13:19:58.338Z,28.17
2022-12-17T13:22:33.490Z,18.45
2022-12-17T13:25:17.871Z,14.05
2022-12-17T13:27:46.928Z,20.00
2022-12-17T13:30:18.778Z,12.05
2022-12-17T13:33:08.364Z,20.75
2022-12-17T13:35:46.175Z,21.00
2022-12-17T13:38:34.145Z,22.33
2022-12-17T13:41:16.737Z,24.77
2022-12-17T13:43:49.173Z,15.68
2022-12-17T13:46:23.361Z,24.73
2022-12-17T13:49:02.585Z,31.88
2022-12-17T13:51:35.017Z,40.17
2022-12-17T13:54:04.323Z,33.88
2022-12-17T13:56:36.859Z,55.22
2022-12-17T13:59:09.198Z,37.10
2022-12-17T14:01:48.357Z,25.77
2022-12-17T14:04:27.602Z,64.13
2022-12-17T14:06:59.011Z,45.63
2022-12-17T14:09:39.048Z,26.55
2022-12-17T14:12:22.532Z,18.15
2022-12-17T14:14:59.882Z,14.43
2022-12-17T14:17:42.617Z,14.27
2022-12-17T14:20:29.315Z,16.88
2022-12-17T14:23:08.149Z,17.65
2022-12-17T14:25:40.844Z,15.15
2022-12-17T14:28:21.801Z,15.43
2022-12-17T14:31:24.857Z,13.43
2022-12-17T14:33:38.070Z,14.43
2022-12-17T14:36:23.608Z,16.50
2022-12-17T14:39:03.290Z,21.95
2022-12-17T14:41:56.746Z,14.95
2022-12-17T14:44:29.315Z,12.07
2022-12-17T14:47:23.579Z,17.35
2022-12-17T14:50:01.775Z,11.27
2022-12-17T14:52:48.876Z,13.63
2022-12-17T14:55:36.488Z,12.23
2022-12-17T14:58:23.638Z,17.13
2022-12-17T15:01:04.746Z,18.52
2022-12-17T15:06:04.516Z,23.95
2022-12-17T15:08:39.663Z,19.35
2022-12-17T15:11:07.845Z,20.98
2022-12-17T15:13:35.220Z,15.68
2022-12-17T15:16:02.634Z,20.77
2022-12-17T15:18:30.202Z,19.30
2022-12-17T15:20:57.898Z,17.13
2022-12-17T15:23:25.892Z,22.30
2022-12-17T15:25:54.526Z,18.52
2022-12-17T15:28:22.535Z,24.08
2022-12-17T15:30:50.373Z,19.00
2022-12-17T15:33:17.930Z,25.10
2022-12-17T15:35:45.405Z,19.67
2022-12-17T15:38:12.905Z,17.13
2022-12-17T15:40:40.988Z,21.88
2022-12-17T15:43:13.488Z,19.90
2022-12-17T15:45:46.226Z,16.15
2022-12-17T15:48:17.999Z,17.55
2022-12-17T15:50:45.749Z,21.30
2022-12-17T15:53:13.275Z,18.67
2022-12-17T15:55:41.080Z,25.02
2022-12-17T15:58:09.092Z,21.73
2022-12-17T16:00:36.519Z,20.33
2022-12-17T16:03:04.667Z,18.17
2022-12-17T16:05:32.380Z,15.30
2022-12-17T16:08:02.508Z,20.88
2022-12-17T16:10:30.316Z,16.50
2022-12-17T16:12:57.819Z,19.15
2022-12-17T16:15:25.307Z,21.27
2022-12-17T16:17:52.990Z,18.30
2022-12-17T16:20:20.595Z,17.60
2022-12-17T16:22:48.166Z,20.63
2022-12-17T16:25:15.616Z,22.75
2022-12-17T16:27:43.263Z,20.67
2022-12-17T16:30:11.387Z,21.90
2022-12-17T16:32:38.862Z,19.40
2022-12-17T16:35:07.004Z,20.98
2022-12-17T16:37:34.352Z,18.80
2022-12-17T16:40:01.918Z,17.92
2022-12-17T16:42:29.445Z,21.70
2022-12-17T16:44:56.769Z,19.70
2022-12-17T16:47:24.364Z,17.92
2022-12-17T16:49:51.780Z,19.95
2022-12-17T16:52:19.227Z,17.23
2022-12-17T16:54:46.635Z,22.00
2022-12-17T16:57:14.183Z,15.00
2022-12-17T16:59:41.571Z,15.10
2022-12-17T17:02:18.175Z,20.52
2022-12-17T17:04:46.350Z,16.80
2022-12-17T17:07:13.900Z,14.30
2022-12-17T17:09:41.296Z,15.20
2022-12-17T17:12:11.846Z,17.92
2022-12-17T17:14:43.788Z,18.05
2022-12-17T17:17:11.131Z,22.57
2022-12-17T17:19:38.425Z,16.17
2022-12-17T17:22:05.796Z,12.20
2022-12-17T17:24:33.199Z,12.20
2022-12-17T17:27:01.727Z,12.20
2022-12-17T17:29:29.418Z,12.93
2022-12-17T17:32:13.155Z,13.63
2022-12-17T17:34:41.844Z,12.63
2022-12-17T17:37:09.335Z,9.65
2022-12-17T17:39:36.679Z,10.98
2022-12-17T17:42:04.196Z,14.27
2022-12-17T17:44:31.624Z,12.63
2022-12-17T17:46:59.227Z,15.88
2022-12-17T17:49:26.783Z,12.38
2022-12-17T17:52:10.938Z,14.48
2022-12-17T17:54:39.654Z,16.38
2022-12-17T17:57:07.996Z,14.88
2022-12-17T17:59:35.369Z,17.30
2022-12-17T18:02:03.547Z,14.43
2022-12-17T18:04:31.910Z,13.55
2022-12-17T18:09:46.726Z,17.33
2022-12-17T18:12:32.569Z,15.65
2022-12-17T18:15:17.295Z,18.30
2022-12-17T18:17:49.225Z,19.95
2022-12-17T18:20:17.304Z,24.95
2022-12-17T18:22:46.134Z,26.55
2022-12-17T18:25:14.511Z,29.45
2022-12-17T18:27:42.596Z,26.50
2022-12-17T18:30:10.725Z,26.58
2022-12-17T18:32:38.072Z,14.65
2022-12-17T18:35:05.873Z,15.93
2022-12-17T18:37:33.365Z,16.63
2022-12-17T18:40:00.770Z,29.85
2022-12-17T18:42:46.901Z,16.95
2022-12-17T18:45:14.462Z,16.35
2022-12-17T18:47:42.630Z,17.35
2022-12-17T18:50:11.039Z,17.23
2022-12-17T18:52:38.809Z,15.82
2022-12-17T18:55:06.790Z,15.32
2022-12-17T18:57:34.106Z,16.27
2022-12-17T19:00:01.531Z,15.07
2022-12-17T19:02:28.961Z,24.10
2022-12-17T19:04:56.466Z,14.20
2022-12-17T19:07:25.711Z,17.02
2022-12-17T19:09:53.243Z,15.18
2022-12-17T19:12:20.991Z,19.30
2022-12-17T19:14:48.653Z,21.08
2022-12-17T19:17:15.963Z,17.15
2022-12-17T19:19:43.303Z,23.80
2022-12-17T19:22:10.745Z,16.77
2022-12-17T19:24:38.125Z,18.80
2022-12-17T19:27:05.612Z,18.23
2022-12-17T19:29:33.292Z,20.45
2022-12-17T19:32:00.679Z,21.60
2022-12-17T19:34:28.098Z,16.13
2022-12-17T19:36:55.377Z,21.98
2022-12-17T19:39:22.825Z,16.88
2022-12-17T19:41:50.978Z,20.80
2022-12-17T19:44:20.471Z,20.63
2022-12-17T19:46:47.877Z,22.48
2022-12-17T19:49:17.508Z,25.95
2022-12-17T19:51:45.124Z,23.27
2022-12-17T19:54:15.253Z,16.50
2022-12-17T19:56:44.591Z,19.35
2022-12-17T19:59:12.745Z,20.60
2022-12-17T20:01:46.566Z,20.30
2022-12-17T20:04:16.004Z,20.60
2022-12-17T20:06:44.719Z,22.92
2022-12-17T20:09:14.238Z,22.50
2022-12-17T20:11:41.847Z,24.38
2022-12-17T20:14:26.593Z,20.30
2022-12-17T20:16:59.549Z,23.67
2022-12-17T20:19:31.093Z,25.98
2022-12-17T20:22:00.184Z,26.30
2022-12-17T20:24:31.576Z,23.23
2022-12-17T20:27:00.481Z,26.77
2022-12-17T20:29:28.842Z,23.25
2022-12-17T20:31:56.495Z,25.95
2022-12-17T20:34:25.404Z,29.58
2022-12-17T20:36:53.935Z,32.42
2022-12-17T20:39:27.300Z,31.08
2022-12-17T20:41:56.537Z,36.00
2022-12-17T20:44:24.066Z,32.17
2022-12-17T20:46:51.460Z,31.40
2022-12-17T20:49:18.887Z,26.70
2022-12-17T20:51:46.331Z,31.05
2022-12-17T20:54:13.792Z,31.90
2022-12-17T20:56:41.254Z,33.95
2022-12-17T20:59:13.068Z,33.33
2022-12-17T21:01:40.712Z,35.35
2022-12-17T21:04:08.400Z,29.65
2022-12-17T21:06:38.724Z,33.28
2022-12-17T21:09:06.513Z,37.47
2022-12-17T21:11:35.276Z,36.15
2022-12-17T21:14:08.692Z,35.72
2022-12-17T21:16:38.302Z,33.08
2022-12-17T21:19:07.191Z,36.47
2022-12-17T21:21:37.027Z,32.25
2022-12-17T21:24:05.260Z,38.85
2022-12-17T21:26:38.428Z,36.28
2022-12-17T21:29:08.043Z,35.47
2022-12-17T21:31:51.163Z,37.45
2022-12-17T21:34:23.929Z,40.88
2022-12-17T21:36:51.974Z,35.13
2022-12-17T21:39:20.366Z,31.58
2022-12-17T21:42:08.792Z,34.72
2022-12-17T21:44:36.947Z,36.17
2022-12-17T21:47:04.688Z,40.90
2022-12-17T21:49:32.527Z,39.13
2022-12-17T21:52:01.002Z,49.47
2022-12-17T21:54:28.529Z,38.67
2022-12-17T21:56:55.954Z,41.22
2022-12-17T21:59:23.489Z,43.90
2022-12-17T22:01:51.526Z,37.00
2022-12-17T22:04:19.308Z,43.80
2022-12-17T22:06:52.814Z,41.92
2022-12-17T22:09:42.363Z,42.92
2022-12-17T22:12:31.710Z,43.92
2022-12-17T22:14:59.068Z,42.97
2022-12-17T22:17:26.995Z,44.92
2022-12-17T22:19:54.415Z,43.55
2022-12-17T22:22:21.767Z,51.63
2022-12-17T22:24:49.167Z,52.92
2022-12-17T22:27:16.744Z,62.10
2022-12-17T22:30:02.687Z,49.33
2022-12-17T22:32:48.858Z,50.83
2022-12-17T22:36:51.849Z,49.72
2022-12-17T22:42:59.325Z,56.97
2022-12-17T22:44:29.673Z,51.50
2022-12-17T22:44:51.306Z,51.40
2022-12-17T22:46:29.455Z,54.08
2022-12-17T22:48:57.611Z,53.38
2022-12-17T22:51:39.659Z,50.88
2022-12-17T22:54:09.781Z,58.72
2022-12-17T22:57:24.758Z,60.95
2022-12-17T22:59:26.838Z,56.28
2022-12-17T23:01:54.522Z,57.03
2022-12-17T23:04:22.081Z,54.55
2022-12-17T23:06:49.536Z,55.42
2022-12-17T23:09:19.239Z,59.85
2022-12-17T23:11:48.177Z,54.00
2022-12-17T23:14:16.846Z,59.03
2022-12-17T23:16:45.085Z,52.75
2022-12-17T23:19:14.392Z,57.28
2022-12-17T23:21:42.159Z,48.25
2022-12-17T23:24:09.886Z,55.55
2022-12-17T23:26:38.006Z,57.03
2022-12-17T23:29:08.611Z,61.67
2022-12-17T23:31:40.131Z,53.88
2022-12-17T23:34:08.281Z,49.45
2022-12-17T23:36:37.234Z,56.28
2022-12-17T23:39:05.584Z,56.22
2022-12-17T23:41:33.485Z,56.65
2022-12-17T23:44:01.235Z,47.85
2022-12-17T23:46:30.324Z,52.13
2022-12-17T23:48:57.898Z,50.72
2022-12-17T23:51:26.035Z,53.47
2022-12-17T23:53:53.561Z,51.03
2022-12-17T23:56:24.267Z,59.22
2022-12-17T23:59:00.418Z,48.03
